Terminal Aerodrome Forecast
Issued by NWS

Current Version | Previous Version | Text Only | Print | Product List | Glossary On
Versions: 1 2 3 4 5 6 7 8 9 10 11 12 13 14 15 16 17 18 19 20 21 22 23 24 25 26 27 28
000 FTUS41 KOKX 251933 AAA TAFHPN TAF AMD KHPN 251933Z 2520/2618 29009KT P6SM FEW250 FM252300 26006KT P6SM SCT250 FM260300 VRB03KT P6SM FEW080 FEW250 FM261600 18008KT P6SM FEW130 FEW250 AMD NOT SKED=

USA.gov is the U.S. government's official web portal to all federal, state and local government web resources and services.